createdAt,value
2022-08-31T00:00:15.740Z,100731.89
2022-08-31T00:03:26.699Z,100731.55
2022-08-31T00:06:03.182Z,100731.54
2022-08-31T00:08:36.937Z,100733.41
2022-08-31T00:11:14.237Z,100733.46
2022-08-31T00:13:48.079Z,100731.70
2022-08-31T00:16:22.425Z,100732.97
2022-08-31T00:18:56.046Z,100734.79
2022-08-31T00:21:31.302Z,100736.89
2022-08-31T00:24:05.144Z,100738.67
2022-08-31T00:26:38.814Z,100737.20
2022-08-31T00:29:12.604Z,100738.41
2022-08-31T00:31:45.794Z,100743.48
2022-08-31T00:34:20.076Z,100740.78
2022-08-31T00:36:54.101Z,100743.34
2022-08-31T00:39:27.304Z,100746.05
2022-08-31T00:42:00.742Z,100744.69
2022-08-31T00:44:34.214Z,100749.02
2022-08-31T00:47:08.512Z,100748.32
2022-08-31T00:49:47.027Z,100749.29
2022-08-31T00:52:22.138Z,100747.98
2022-08-31T00:54:58.349Z,100749.46
2022-08-31T00:57:41.546Z,100753.66
2022-08-31T01:00:18.989Z,100754.70
2022-08-31T01:02:52.733Z,100751.76
2022-08-31T01:05:26.988Z,100752.21
2022-08-31T01:08:01.739Z,100751.20
2022-08-31T01:10:38.841Z,100748.88
2022-08-31T01:13:13.980Z,100748.90
2022-08-31T01:15:53.987Z,100745.40
2022-08-31T01:18:28.270Z,100747.56
2022-08-31T01:21:11.002Z,100748.80
2022-08-31T01:23:46.028Z,100751.18
2022-08-31T01:26:22.584Z,100748.78
2022-08-31T01:29:01.056Z,100753.21
2022-08-31T01:31:38.349Z,100749.34
2022-08-31T01:34:13.260Z,100745.23
2022-08-31T01:36:48.466Z,100748.70
2022-08-31T01:39:22.789Z,100746.27
2022-08-31T01:41:57.059Z,100745.59
2022-08-31T01:44:31.013Z,100752.30
2022-08-31T01:47:04.473Z,100750.04
2022-08-31T01:49:38.045Z,100750.09
2022-08-31T01:52:11.399Z,100743.23
2022-08-31T01:54:45.919Z,100752.45
2022-08-31T01:57:19.233Z,100751.52
2022-08-31T02:00:23.375Z,100746.41
2022-08-31T02:02:56.910Z,100746.77
2022-08-31T02:05:31.222Z,100747.88
2022-08-31T02:08:07.616Z,100743.67
2022-08-31T02:10:41.462Z,100746.55
2022-08-31T02:13:16.646Z,100748.91
2022-08-31T02:15:51.489Z,100745.83
2022-08-31T02:18:25.094Z,100746.98
2022-08-31T02:20:58.577Z,100746.38
2022-08-31T02:23:33.561Z,100741.23
2022-08-31T02:26:07.130Z,100742.85
2022-08-31T02:28:40.464Z,100739.66
2022-08-31T02:31:15.240Z,100739.08
2022-08-31T02:33:53.168Z,100734.59
2022-08-31T02:36:27.112Z,100739.63
2022-08-31T02:39:01.344Z,100737.50
2022-08-31T02:41:35.411Z,100735.86
2022-08-31T02:44:10.019Z,100740.55
2022-08-31T02:46:43.712Z,100740.39
2022-08-31T02:49:41.819Z,100738.20
2022-08-31T02:52:15.747Z,100737.38
2022-08-31T02:54:49.058Z,100731.80
2022-08-31T02:57:23.510Z,100737.63
2022-08-31T02:59:56.969Z,100738.46
2022-08-31T03:02:33.464Z,100737.58
2022-08-31T03:05:08.602Z,100738.86
2022-08-31T03:07:43.550Z,100736.77
2022-08-31T03:10:18.135Z,100741.93
2022-08-31T03:12:51.802Z,100743.58
2022-08-31T03:15:26.909Z,100740.67
2022-08-31T03:18:01.090Z,100743.04
2022-08-31T03:20:40.290Z,100745.83
2022-08-31T03:23:15.809Z,100745.06
2022-08-31T03:25:49.309Z,100750.07
2022-08-31T03:28:22.766Z,100750.61
2022-08-31T03:31:12.845Z,100752.50
2022-08-31T03:33:46.310Z,100750.85
2022-08-31T03:36:20.133Z,100751.16
2022-08-31T03:38:53.251Z,100755.93
2022-08-31T03:41:27.813Z,100756.23
2022-08-31T03:44:02.287Z,100758.81
2022-08-31T03:46:36.107Z,100763.11
2022-08-31T03:49:09.962Z,100761.06
2022-08-31T03:51:49.802Z,100764.31
2022-08-31T03:54:25.415Z,100762.33
2022-08-31T03:56:59.226Z,100762.73
2022-08-31T03:59:32.825Z,100763.54
2022-08-31T04:02:25.511Z,100762.10
2022-08-31T04:05:18.349Z,100760.33
2022-08-31T04:08:10.336Z,100765.07
2022-08-31T04:11:20.179Z,100762.25
2022-08-31T04:14:32.256Z,100767.82
2022-08-31T04:17:28.523Z,100764.23
2022-08-31T04:20:10.913Z,100765.94
2022-08-31T04:22:50.339Z,100772.45
2022-08-31T04:25:44.183Z,100772.88
2022-08-31T04:28:17.529Z,100777.83
2022-08-31T04:30:51.946Z,100784.25
2022-08-31T04:33:26.922Z,100783.60
2022-08-31T04:36:00.499Z,100785.86
2022-08-31T04:38:33.501Z,100789.20
2022-08-31T04:41:10.842Z,100789.52
2022-08-31T04:43:47.896Z,100788.79
2022-08-31T04:46:22.353Z,100792.96
2022-08-31T04:48:56.193Z,100798.34
2022-08-31T04:51:32.133Z,100796.56
2022-08-31T04:54:05.799Z,100796.65
2022-08-31T04:56:42.971Z,100799.05
2022-08-31T04:59:18.467Z,100801.02
2022-08-31T05:02:08.457Z,100799.29
2022-08-31T05:04:48.379Z,100798.39
2022-08-31T05:07:21.943Z,100799.76
2022-08-31T05:09:55.015Z,100802.41
2022-08-31T05:12:29.884Z,100803.54
2022-08-31T05:15:03.462Z,100802.36
2022-08-31T05:17:37.016Z,100800.33
2022-08-31T05:20:11.201Z,100794.23
2022-08-31T05:22:44.890Z,100794.48
2022-08-31T05:25:18.129Z,100797.42
2022-08-31T05:27:51.255Z,100800.09
2022-08-31T05:30:27.795Z,100801.73
2022-08-31T05:33:09.143Z,100809.51
2022-08-31T05:35:42.560Z,100811.78
2022-08-31T05:38:15.829Z,100813.00
2022-08-31T05:40:55.783Z,100816.52
2022-08-31T05:43:29.856Z,100821.70
2022-08-31T05:46:08.100Z,100817.48
2022-08-31T05:48:49.441Z,100814.62
2022-08-31T05:51:24.352Z,100811.41
2022-08-31T05:53:59.619Z,100818.77
2022-08-31T05:56:33.271Z,100821.42
2022-08-31T05:59:07.073Z,100821.19
2022-08-31T06:01:42.478Z,100823.73
2022-08-31T06:04:19.127Z,100823.77
2022-08-31T06:06:52.487Z,100825.52
2022-08-31T06:09:28.422Z,100833.92
2022-08-31T06:12:03.787Z,100831.45
2022-08-31T06:14:36.914Z,100840.77
2022-08-31T06:17:10.582Z,100844.76
2022-08-31T06:19:43.791Z,100847.67
2022-08-31T06:22:19.512Z,100847.23
2022-08-31T06:24:53.345Z,100848.77
2022-08-31T06:27:26.924Z,100851.63
2022-08-31T06:30:04.931Z,100851.46
2022-08-31T06:32:41.146Z,100845.91
2022-08-31T06:35:15.341Z,100842.95
2022-08-31T06:38:12.094Z,100846.48
2022-08-31T06:40:52.928Z,100838.52
2022-08-31T06:44:00.359Z,100840.89
2022-08-31T06:46:56.768Z,100841.58
2022-08-31T06:49:32.530Z,100838.77
2022-08-31T06:52:06.426Z,100832.58
2022-08-31T06:54:40.542Z,100833.73
2022-08-31T06:57:32.764Z,100837.21
2022-08-31T07:00:27.976Z,100849.50
2022-08-31T07:03:34.739Z,100852.63
2022-08-31T07:06:12.118Z,100859.36
2022-08-31T07:08:49.946Z,100868.42
2022-08-31T07:11:29.659Z,100874.02
2022-08-31T07:14:05.002Z,100876.12
2022-08-31T07:16:40.751Z,100880.75
2022-08-31T07:19:17.751Z,100883.30
2022-08-31T07:22:06.424Z,100882.06
2022-08-31T07:24:40.549Z,100880.00
2022-08-31T07:27:18.965Z,100882.24
2022-08-31T07:30:00.641Z,100881.62
2022-08-31T07:32:56.480Z,100877.41
2022-08-31T07:35:39.886Z,100879.63
2022-08-31T07:38:44.416Z,100883.63
2022-08-31T07:41:36.042Z,100879.20
2022-08-31T07:44:11.574Z,100873.64
2022-08-31T07:46:45.658Z,100872.64
2022-08-31T07:49:21.673Z,100869.04
2022-08-31T07:52:07.441Z,100870.61
2022-08-31T07:55:12.832Z,100874.57
2022-08-31T07:57:59.750Z,100870.95
2022-08-31T08:00:36.546Z,100865.70
2022-08-31T08:03:13.333Z,100863.43
2022-08-31T08:06:08.743Z,100862.56
2022-08-31T08:09:22.312Z,100864.48
2022-08-31T08:12:10.430Z,100866.80
2022-08-31T08:15:15.325Z,100866.77
2022-08-31T08:18:13.806Z,100864.05
2022-08-31T08:20:53.924Z,100869.77
2022-08-31T08:23:28.527Z,100880.83
2022-08-31T08:26:21.319Z,100880.86
2022-08-31T08:29:08.542Z,100882.15
2022-08-31T08:31:56.310Z,100885.15
2022-08-31T08:34:36.574Z,100881.16
2022-08-31T08:37:11.354Z,100872.03
2022-08-31T08:39:45.688Z,100876.87
2022-08-31T08:42:26.309Z,100878.05
2022-08-31T08:44:59.981Z,100881.27
2022-08-31T08:47:39.207Z,100879.25
2022-08-31T08:50:16.456Z,100878.09
2022-08-31T08:52:51.398Z,100876.77
2022-08-31T08:55:32.537Z,100873.16
2022-08-31T08:58:08.412Z,100875.20
2022-08-31T09:00:46.948Z,100873.95
2022-08-31T09:03:33.712Z,100876.96
2022-08-31T09:06:54.867Z,100880.97
2022-08-31T09:09:39.619Z,100881.98
2022-08-31T09:12:26.617Z,100879.30
2022-08-31T09:15:37.009Z,100879.42
2022-08-31T09:18:29.290Z,100878.91
2022-08-31T09:21:22.378Z,100879.48
2022-08-31T09:24:05.087Z,100879.60
2022-08-31T09:27:05.508Z,100882.46
2022-08-31T09:29:45.477Z,100879.35
2022-08-31T09:32:31.774Z,100873.73
2022-08-31T09:35:07.115Z,100875.11
2022-08-31T09:37:46.704Z,100872.54
2022-08-31T09:40:24.450Z,100867.64
2022-08-31T09:43:08.724Z,100868.20
2022-08-31T09:45:56.738Z,100863.43
2022-08-31T09:48:45.727Z,100858.67
2022-08-31T09:51:28.594Z,100861.80
2022-08-31T09:54:24.375Z,100853.50
2022-08-31T09:57:00.202Z,100849.35
2022-08-31T09:59:38.669Z,100849.35
2022-08-31T10:02:32.285Z,100852.42
2022-08-31T10:05:08.991Z,100848.14
2022-08-31T10:07:58.747Z,100847.95
2022-08-31T10:10:35.307Z,100852.49
2022-08-31T10:13:15.408Z,100848.94
2022-08-31T10:15:54.547Z,100845.92
2022-08-31T10:18:38.498Z,100841.79
2022-08-31T10:21:18.445Z,100840.33
2022-08-31T10:23:57.897Z,100837.88
2022-08-31T10:26:38.627Z,100834.28
2022-08-31T10:29:21.169Z,100841.04
2022-08-31T10:32:02.384Z,100848.91
2022-08-31T10:34:57.217Z,100846.06
2022-08-31T10:37:37.242Z,100839.52
2022-08-31T10:40:15.371Z,100832.73
2022-08-31T10:43:00.205Z,100832.49
2022-08-31T10:45:38.087Z,100830.70
2022-08-31T10:48:13.374Z,100832.61
2022-08-31T10:50:51.874Z,100830.84
2022-08-31T10:53:35.831Z,100831.13
2022-08-31T10:56:24.024Z,100828.39
2022-08-31T10:59:22.819Z,100830.02
2022-08-31T11:02:03.987Z,100827.19
2022-08-31T11:04:58.829Z,100823.61
2022-08-31T11:07:42.669Z,100824.48
2022-08-31T11:10:25.419Z,100823.33
2022-08-31T11:13:03.837Z,100823.89
2022-08-31T11:15:58.633Z,100817.11
2022-08-31T11:18:56.406Z,100814.86
2022-08-31T11:21:56.059Z,100810.37
2022-08-31T11:24:46.374Z,100809.73
2022-08-31T11:27:27.934Z,100807.14
2022-08-31T11:30:08.464Z,100805.71
2022-08-31T11:32:46.857Z,100807.29
2022-08-31T11:36:07.005Z,100810.54
2022-08-31T11:38:52.677Z,100805.54
2022-08-31T11:41:45.451Z,100803.11
2022-08-31T11:44:54.460Z,100799.80
2022-08-31T11:47:44.845Z,100798.65
2022-08-31T11:50:45.002Z,100798.77
2022-08-31T11:53:33.303Z,100804.46
2022-08-31T11:56:07.936Z,100799.79
2022-08-31T11:58:45.031Z,100795.60
2022-08-31T12:01:43.417Z,100789.41
2022-08-31T12:04:46.543Z,100794.58
2022-08-31T12:07:29.172Z,100788.06
2022-08-31T12:10:24.093Z,100781.56
2022-08-31T12:13:20.275Z,100775.94
2022-08-31T12:16:21.353Z,100768.14
2022-08-31T12:19:41.333Z,100767.32
2022-08-31T12:22:46.445Z,100766.86
2022-08-31T12:25:30.584Z,100763.14
2022-08-31T12:28:14.598Z,100761.14
2022-08-31T12:30:55.819Z,100761.05
2022-08-31T12:33:31.151Z,100749.65
2022-08-31T12:36:17.909Z,100753.45
2022-08-31T12:39:09.980Z,100741.70
2022-08-31T12:41:50.058Z,100739.36
2022-08-31T12:44:27.471Z,100739.57
2022-08-31T12:47:05.939Z,100737.00
2022-08-31T12:49:57.851Z,100730.41
2022-08-31T12:52:57.511Z,100723.29
2022-08-31T12:55:42.688Z,100725.95
2022-08-31T12:58:55.944Z,100724.88
2022-08-31T13:01:30.068Z,100724.71
2022-08-31T13:04:05.130Z,100719.27
2022-08-31T13:06:41.107Z,100721.61
2022-08-31T13:09:28.056Z,100717.83
2022-08-31T13:12:06.121Z,100717.16
2022-08-31T13:14:45.461Z,100713.79
2022-08-31T13:17:22.257Z,100714.34
2022-08-31T13:19:58.120Z,100713.25
2022-08-31T13:22:34.317Z,100711.00
2022-08-31T13:25:24.542Z,100710.80
2022-08-31T13:27:57.908Z,100711.33
2022-08-31T13:30:34.851Z,100709.77
2022-08-31T13:33:27.408Z,100711.95
2022-08-31T13:36:06.337Z,100704.98
2022-08-31T13:38:50.502Z,100704.94
2022-08-31T13:41:34.880Z,100701.88
2022-08-31T13:44:15.172Z,100707.09
2022-08-31T13:47:00.582Z,100707.27
2022-08-31T13:49:38.272Z,100709.86
2022-08-31T13:52:21.559Z,100710.31
2022-08-31T13:55:03.690Z,100706.17
2022-08-31T13:57:38.718Z,100709.80
2022-08-31T14:00:35.873Z,100708.11
2022-08-31T14:03:33.621Z,100703.67
2022-08-31T14:06:28.384Z,100706.06
2022-08-31T14:09:05.562Z,100703.59
2022-08-31T14:11:39.615Z,100704.77
2022-08-31T14:14:13.868Z,100699.10
2022-08-31T14:16:52.434Z,100698.91
2022-08-31T14:19:39.162Z,100702.70
2022-08-31T14:22:31.667Z,100707.30
2022-08-31T14:25:05.423Z,100707.49
2022-08-31T14:27:43.612Z,100705.92
2022-08-31T14:30:17.661Z,100709.05
2022-08-31T14:32:51.654Z,100709.69
2022-08-31T14:35:27.862Z,100711.75
2022-08-31T14:38:01.266Z,100713.06
2022-08-31T14:40:37.326Z,100714.98
2022-08-31T14:43:13.179Z,100718.33
2022-08-31T14:45:46.929Z,100713.88
2022-08-31T14:48:20.482Z,100715.27
2022-08-31T14:50:54.453Z,100715.02
2022-08-31T14:53:36.853Z,100717.29
2022-08-31T14:56:17.933Z,100712.35
2022-08-31T14:58:52.676Z,100709.00
2022-08-31T15:01:30.668Z,100708.80
2022-08-31T15:04:05.989Z,100707.02
2022-08-31T15:06:40.507Z,100706.10
2022-08-31T15:09:14.346Z,100705.33
2022-08-31T15:11:48.440Z,100705.16
2022-08-31T15:14:22.707Z,100704.42
2022-08-31T15:17:01.322Z,100708.99
2022-08-31T15:19:37.743Z,100706.88
2022-08-31T15:22:11.706Z,100706.85
2022-08-31T15:24:45.660Z,100710.69
2022-08-31T15:27:21.061Z,100711.04
2022-08-31T15:29:56.576Z,100710.55
2022-08-31T15:32:31.304Z,100714.60
2022-08-31T15:35:04.730Z,100710.75
2022-08-31T15:37:40.481Z,100708.18
2022-08-31T15:40:14.792Z,100711.09
2022-08-31T15:42:50.541Z,100711.83
2022-08-31T15:45:26.053Z,100709.37
2022-08-31T15:48:17.537Z,100709.73
2022-08-31T15:50:54.125Z,100711.27
2022-08-31T15:53:30.755Z,100713.02
2022-08-31T15:56:09.659Z,100713.49
2022-08-31T15:58:43.325Z,100713.17
2022-08-31T16:01:18.044Z,100713.48
2022-08-31T16:03:55.417Z,100716.27
2022-08-31T16:06:32.756Z,100716.70
2022-08-31T16:09:06.405Z,100720.56
2022-08-31T16:11:40.777Z,100721.02
2022-08-31T16:14:15.901Z,100720.88
2022-08-31T16:16:51.554Z,100721.51
2022-08-31T16:19:35.035Z,100723.66
2022-08-31T16:22:10.044Z,100721.39
2022-08-31T16:24:44.622Z,100717.66
2022-08-31T16:27:20.673Z,100720.13
2022-08-31T16:29:54.375Z,100718.56
2022-08-31T16:32:28.149Z,100713.90
2022-08-31T16:35:01.866Z,100712.73
2022-08-31T16:37:36.932Z,100715.45
2022-08-31T16:40:31.083Z,100717.63
2022-08-31T16:43:05.814Z,100718.52
2022-08-31T16:45:41.226Z,100721.21
2022-08-31T16:48:32.778Z,100718.79
2022-08-31T16:51:15.815Z,100718.34
2022-08-31T16:53:51.096Z,100719.63
2022-08-31T16:56:26.453Z,100717.52
2022-08-31T16:59:00.700Z,100722.57
2022-08-31T17:01:35.947Z,100722.06
2022-08-31T17:04:12.769Z,100724.05
2022-08-31T17:06:48.744Z,100721.89
2022-08-31T17:09:27.251Z,100728.20
2022-08-31T17:12:02.626Z,100724.94
2022-08-31T17:14:44.214Z,100719.00
2022-08-31T17:17:19.887Z,100723.37
2022-08-31T17:19:54.505Z,100720.01
2022-08-31T17:22:32.922Z,100722.59
2022-08-31T17:25:08.614Z,100727.08
2022-08-31T17:27:41.874Z,100727.60
2022-08-31T17:30:19.325Z,100730.19
2022-08-31T17:32:52.531Z,100730.59
2022-08-31T17:35:26.364Z,100736.89
2022-08-31T17:38:00.214Z,100739.14
2022-08-31T17:40:34.128Z,100744.19
2022-08-31T17:43:08.217Z,100746.95
2022-08-31T17:45:41.477Z,100746.80
2022-08-31T17:48:14.717Z,100748.16
2022-08-31T17:50:49.614Z,100749.90
2022-08-31T17:53:23.157Z,100751.52
2022-08-31T17:55:59.662Z,100749.11
2022-08-31T17:58:32.888Z,100748.01
2022-08-31T18:01:07.534Z,100749.31
2022-08-31T18:03:41.217Z,100747.04
2022-08-31T18:06:18.113Z,100747.83
2022-08-31T18:08:51.972Z,100747.98
2022-08-31T18:11:26.459Z,100751.10
2022-08-31T18:14:00.983Z,100749.15
2022-08-31T18:16:34.270Z,100753.45
2022-08-31T18:19:07.750Z,100760.63
2022-08-31T18:21:41.817Z,100764.44
2022-08-31T18:24:16.133Z,100760.61
2022-08-31T18:26:51.002Z,100762.27
2022-08-31T18:29:25.316Z,100763.42
2022-08-31T18:31:59.917Z,100764.33
2022-08-31T18:34:35.419Z,100772.71
2022-08-31T18:37:09.914Z,100775.98
2022-08-31T18:40:05.240Z,100771.20
2022-08-31T18:42:57.655Z,100767.98
2022-08-31T18:45:32.034Z,100768.11
2022-08-31T18:48:25.190Z,100771.98
2022-08-31T18:50:59.406Z,100772.21
2022-08-31T18:53:34.991Z,100771.85
2022-08-31T18:56:12.707Z,100771.38
2022-08-31T18:58:46.776Z,100770.34
2022-08-31T19:01:20.910Z,100771.39
2022-08-31T19:03:55.068Z,100776.20
2022-08-31T19:06:29.781Z,100774.02
2022-08-31T19:09:04.067Z,100772.41
2022-08-31T19:11:47.573Z,100767.32
2022-08-31T19:14:23.613Z,100770.46
2022-08-31T19:17:04.006Z,100764.75
2022-08-31T19:19:38.720Z,100766.08
2022-08-31T19:22:13.741Z,100766.70
2022-08-31T19:24:48.173Z,100766.54
2022-08-31T19:27:22.520Z,100769.15
2022-08-31T19:29:58.545Z,100764.58
2022-08-31T19:32:32.388Z,100767.02
2022-08-31T19:35:12.768Z,100768.85
2022-08-31T19:37:47.960Z,100767.25
2022-08-31T19:40:22.143Z,100765.13
2022-08-31T19:43:00.102Z,100767.69
2022-08-31T19:45:45.145Z,100767.99
2022-08-31T19:48:24.227Z,100764.66
2022-08-31T19:50:58.218Z,100767.22
2022-08-31T19:53:32.196Z,100769.02
2022-08-31T19:56:06.795Z,100770.83
2022-08-31T19:58:41.159Z,100771.52
2022-08-31T20:01:14.665Z,100769.90
2022-08-31T20:03:48.301Z,100769.85
2022-08-31T20:06:23.640Z,100771.65
2022-08-31T20:08:57.146Z,100766.23
2022-08-31T20:11:32.175Z,100764.16
2022-08-31T20:14:06.642Z,100769.35
2022-08-31T20:16:43.646Z,100771.73
2022-08-31T20:19:25.190Z,100769.64
2022-08-31T20:22:04.044Z,100770.83
2022-08-31T20:24:43.748Z,100768.99
2022-08-31T20:27:19.744Z,100767.58
2022-08-31T20:29:54.057Z,100769.05
2022-08-31T20:32:29.392Z,100775.54
2022-08-31T20:35:03.487Z,100775.54
2022-08-31T20:37:37.047Z,100779.35
2022-08-31T20:40:17.695Z,100781.87
2022-08-31T20:42:51.847Z,100780.00
2022-08-31T20:45:25.636Z,100780.70
2022-08-31T20:48:16.288Z,100780.14
2022-08-31T20:50:53.148Z,100780.23
2022-08-31T20:53:42.463Z,100784.48
2022-08-31T20:56:19.028Z,100779.56
2022-08-31T20:58:52.377Z,100780.91
2022-08-31T21:01:26.540Z,100777.48
2022-08-31T21:04:00.695Z,100777.55
2022-08-31T21:06:36.186Z,100777.90
2022-08-31T21:09:10.370Z,100775.42
2022-08-31T21:11:44.398Z,100784.88
2022-08-31T21:14:20.367Z,100788.05
2022-08-31T21:16:54.430Z,100787.67
2022-08-31T21:19:28.613Z,100788.21
2022-08-31T21:22:05.784Z,100789.33
2022-08-31T21:24:43.467Z,100789.09
2022-08-31T21:27:19.077Z,100790.34
2022-08-31T21:29:52.783Z,100789.86
2022-08-31T21:32:26.467Z,100790.61
2022-08-31T21:35:00.407Z,100787.84
2022-08-31T21:37:33.875Z,100789.35
2022-08-31T21:40:08.646Z,100789.80
2022-08-31T21:42:41.782Z,100793.41
2022-08-31T21:45:16.059Z,100797.09
2022-08-31T21:47:49.389Z,100800.96
2022-08-31T21:50:22.753Z,100804.16
2022-08-31T21:53:00.140Z,100801.48
2022-08-31T21:55:34.118Z,100802.06
2022-08-31T21:58:07.230Z,100806.89
2022-08-31T22:00:42.516Z,100806.04
2022-08-31T22:03:19.859Z,100805.13
2022-08-31T22:05:53.871Z,100803.17
2022-08-31T22:08:27.661Z,100798.70
2022-08-31T22:11:01.647Z,100800.77
2022-08-31T22:13:37.412Z,100796.98
2022-08-31T22:16:19.361Z,100796.88
2022-08-31T22:19:01.374Z,100798.85
2022-08-31T22:21:37.448Z,100798.54
2022-08-31T22:24:13.062Z,100806.02
2022-08-31T22:27:03.657Z,100803.47
2022-08-31T22:29:40.230Z,100808.61
2022-08-31T22:32:15.978Z,100810.39
2022-08-31T22:34:49.247Z,100813.81
2022-08-31T22:37:22.613Z,100808.41
2022-08-31T22:39:56.138Z,100809.70
2022-08-31T22:42:29.236Z,100804.56
2022-08-31T22:45:02.931Z,100805.79
2022-08-31T22:47:49.321Z,100803.92
2022-08-31T22:50:23.527Z,100797.61
2022-08-31T22:52:56.858Z,100796.95
2022-08-31T22:55:30.607Z,100797.61
2022-08-31T22:58:04.669Z,100799.82
2022-08-31T23:00:38.197Z,100797.59
2022-08-31T23:03:15.338Z,100798.88
2022-08-31T23:05:49.006Z,100798.13
2022-08-31T23:08:22.425Z,100796.86
2022-08-31T23:10:57.037Z,100796.61
2022-08-31T23:13:52.058Z,100797.35
2022-08-31T23:16:28.047Z,100791.52
2022-08-31T23:19:03.463Z,100797.81
2022-08-31T23:21:37.269Z,100795.96
2022-08-31T23:24:11.174Z,100793.59
2022-08-31T23:26:45.145Z,100793.98
2022-08-31T23:29:21.165Z,100792.06
2022-08-31T23:31:55.259Z,100794.06
2022-08-31T23:34:28.663Z,100795.11
2022-08-31T23:37:03.183Z,100798.53
2022-08-31T23:39:37.722Z,100799.77
2022-08-31T23:42:12.471Z,100799.75
2022-08-31T23:44:47.960Z,100801.73
2022-08-31T23:47:23.413Z,100804.21
2022-08-31T23:49:58.222Z,100800.25
2022-08-31T23:52:34.773Z,100801.45
2022-08-31T23:55:09.932Z,100801.46
2022-08-31T23:57:48.203Z,100800.86
